createdAt,value
2022-10-09T00:09:32.642Z,12.54
2022-10-09T00:19:37.121Z,12.37
2022-10-09T00:29:40.187Z,12.25
2022-10-09T00:39:44.835Z,12.29
2022-10-09T00:49:48.651Z,12.13
2022-10-09T00:59:53.227Z,12.23
2022-10-09T01:09:59.335Z,12.16
2022-10-09T01:20:25.036Z,12.07
2022-10-09T01:30:29.719Z,12.23
2022-10-09T01:40:33.155Z,12.12
2022-10-09T01:50:41.536Z,12.16
2022-10-09T02:00:48.865Z,12.25
2022-10-09T02:10:56.192Z,11.98
2022-10-09T02:21:05.594Z,11.99
2022-10-09T02:31:15.184Z,11.98
2022-10-09T02:41:18.311Z,12.00
2022-10-09T02:51:22.844Z,11.94
2022-10-09T03:01:26.290Z,11.85
2022-10-09T03:11:30.926Z,11.94
2022-10-09T03:21:34.026Z,11.62
2022-10-09T03:31:53.871Z,11.84
2022-10-09T03:41:56.993Z,11.88
2022-10-09T03:52:01.389Z,11.95
2022-10-09T04:02:04.594Z,11.97
2022-10-09T04:12:09.031Z,11.46
2022-10-09T04:22:12.121Z,11.93
2022-10-09T04:32:16.675Z,12.09
2022-10-09T04:42:19.797Z,12.16
2022-10-09T04:52:24.229Z,12.66
2022-10-09T05:02:27.411Z,12.74
2022-10-09T05:12:31.942Z,12.67
2022-10-09T05:22:34.994Z,12.68
2022-10-09T05:32:39.480Z,12.68
2022-10-09T05:42:42.554Z,12.49
2022-10-09T05:52:47.336Z,12.84
2022-10-09T06:02:51.073Z,13.05
2022-10-09T06:12:55.879Z,13.39
2022-10-09T06:22:58.932Z,14.02
2022-10-09T06:33:03.449Z,14.28
2022-10-09T06:43:06.837Z,14.75
2022-10-09T06:53:11.322Z,15.44
2022-10-09T07:03:15.275Z,18.25
2022-10-09T07:13:19.742Z,20.71
2022-10-09T07:23:22.913Z,21.48
2022-10-09T07:33:27.343Z,21.44
2022-10-09T07:43:30.933Z,21.42
2022-10-09T07:53:36.136Z,21.12
2022-10-09T08:03:39.427Z,20.72
2022-10-09T08:13:44.423Z,21.12
2022-10-09T08:23:47.777Z,21.17
2022-10-09T08:33:54.844Z,21.33
2022-10-09T08:44:02.671Z,21.42
2022-10-09T08:54:14.630Z,21.70
2022-10-09T09:04:29.037Z,21.83
2022-10-09T09:14:45.121Z,22.20
2022-10-09T09:24:50.734Z,22.54
2022-10-09T09:35:02.544Z,21.75
2022-10-09T09:45:08.616Z,22.53
2022-10-09T09:55:24.599Z,22.39
2022-10-09T10:05:29.042Z,22.34
2022-10-09T10:15:34.751Z,22.49
2022-10-09T10:25:37.833Z,22.45
2022-10-09T10:35:43.658Z,21.92
2022-10-09T10:45:54.271Z,23.36
2022-10-09T10:56:05.092Z,23.02
2022-10-09T11:06:15.434Z,22.35
2022-10-09T11:16:32.907Z,22.46
2022-10-09T11:26:45.905Z,22.59
2022-10-09T11:36:50.336Z,21.92
2022-10-09T11:47:01.595Z,22.47
2022-10-09T11:57:07.091Z,22.93
2022-10-09T12:07:12.587Z,22.79
2022-10-09T12:17:19.047Z,22.51
2022-10-09T12:27:25.616Z,22.52
2022-10-09T12:37:35.915Z,22.78
2022-10-09T12:47:38.966Z,21.87
2022-10-09T12:57:43.832Z,22.92
2022-10-09T13:07:52.502Z,22.71
2022-10-09T13:17:57.119Z,22.72
2022-10-09T13:28:00.334Z,22.58
2022-10-09T13:38:04.806Z,22.65
2022-10-09T13:48:07.858Z,22.96
2022-10-09T13:58:12.570Z,23.25
2022-10-09T14:08:16.079Z,23.13
2022-10-09T14:18:21.595Z,23.11
2022-10-09T14:28:29.353Z,23.18
2022-10-09T14:38:36.723Z,22.89
2022-10-09T14:48:40.684Z,22.57
2022-10-09T14:58:45.592Z,22.48
2022-10-09T15:08:48.701Z,22.49
2022-10-09T15:18:56.438Z,22.40
2022-10-09T15:28:59.641Z,22.22
2022-10-09T15:39:07.075Z,21.98
2022-10-09T15:49:10.169Z,21.71
2022-10-09T15:59:16.797Z,21.37
2022-10-09T16:09:19.936Z,20.52
2022-10-09T16:19:24.368Z,20.61
2022-10-09T16:29:27.480Z,20.59
2022-10-09T16:39:32.369Z,20.31
2022-10-09T16:49:35.791Z,20.02
2022-10-09T16:59:41.349Z,19.49
2022-10-09T17:09:44.840Z,19.29
2022-10-09T17:30:02.300Z,18.28
2022-10-09T17:40:07.893Z,17.74
2022-10-09T17:50:11.583Z,17.64
2022-10-09T18:00:21.510Z,17.60
2022-10-09T18:10:25.004Z,17.69
2022-10-09T18:20:30.635Z,17.04
2022-10-09T18:30:34.404Z,17.49
2022-10-09T18:40:45.181Z,17.64
2022-10-09T18:50:49.376Z,16.94
2022-10-09T19:00:53.909Z,17.38
2022-10-09T19:10:57.031Z,17.24
2022-10-09T19:21:01.782Z,17.17
2022-10-09T19:31:06.570Z,16.87
2022-10-09T19:41:13.100Z,16.71
2022-10-09T19:51:18.044Z,16.88
2022-10-09T20:01:43.792Z,16.25
2022-10-09T20:11:49.204Z,16.72
2022-10-09T20:21:53.646Z,16.53
2022-10-09T20:31:56.825Z,16.58
2022-10-09T20:42:01.208Z,16.19
2022-10-09T20:52:04.847Z,15.93
2022-10-09T21:02:09.517Z,15.22
2022-10-09T21:12:12.866Z,15.41
2022-10-09T21:22:17.439Z,14.89
2022-10-09T21:32:20.570Z,14.98
2022-10-09T21:42:24.976Z,14.70
2022-10-09T21:52:28.010Z,14.77
2022-10-09T22:02:32.510Z,14.68
2022-10-09T22:12:35.839Z,14.17
2022-10-09T22:22:40.327Z,14.19
2022-10-09T22:32:43.486Z,14.18
2022-10-09T22:42:48.254Z,14.11
2022-10-09T22:52:51.924Z,14.03
2022-10-09T23:02:56.578Z,13.92
2022-10-09T23:12:59.630Z,13.71
2022-10-09T23:23:04.184Z,13.60
2022-10-09T23:33:07.333Z,13.54
2022-10-09T23:43:11.819Z,13.39
2022-10-09T23:53:14.964Z,12.87
